createdAt,value
2023-03-22T00:00:15.031Z,5.72
2023-03-22T00:02:41.396Z,5.80
2023-03-22T00:05:08.281Z,5.81
2023-03-22T00:07:34.661Z,5.87
2023-03-22T00:10:01.394Z,5.90
2023-03-22T00:12:27.762Z,6.03
2023-03-22T00:14:55.057Z,6.18
2023-03-22T00:17:23.042Z,6.25
2023-03-22T00:19:49.686Z,6.36
2023-03-22T00:22:16.088Z,6.48
2023-03-22T00:24:42.457Z,6.42
2023-03-22T00:27:08.764Z,6.40
2023-03-22T00:29:35.167Z,6.38
2023-03-22T00:32:01.564Z,6.40
2023-03-22T00:34:31.500Z,6.45
2023-03-22T00:36:57.909Z,6.47
2023-03-22T00:39:24.374Z,6.38
2023-03-22T00:41:51.427Z,6.35
2023-03-22T00:44:17.848Z,6.29
2023-03-22T00:46:44.192Z,6.19
2023-03-22T00:49:10.538Z,6.25
2023-03-22T00:51:36.841Z,6.24
2023-03-22T00:54:03.261Z,6.07
2023-03-22T00:56:29.602Z,5.87
2023-03-22T00:58:56.163Z,5.80
2023-03-22T01:01:22.588Z,5.75
2023-03-22T01:03:50.566Z,5.66
2023-03-22T01:06:17.246Z,5.67
2023-03-22T01:08:43.735Z,5.86
2023-03-22T01:11:10.150Z,6.13
2023-03-22T01:13:37.668Z,6.25
2023-03-22T01:16:05.550Z,6.32
2023-03-22T01:18:31.940Z,6.33
2023-03-22T01:20:59.391Z,6.38
2023-03-22T01:23:25.763Z,6.42
2023-03-22T01:25:52.069Z,6.46
2023-03-22T01:28:18.567Z,6.50
2023-03-22T01:30:44.913Z,6.54
2023-03-22T01:33:11.281Z,6.58
2023-03-22T01:35:37.702Z,6.54
2023-03-22T01:38:04.153Z,6.55
2023-03-22T01:40:30.495Z,6.48
2023-03-22T01:42:56.953Z,6.41
2023-03-22T01:45:35.692Z,6.32
2023-03-22T01:48:08.459Z,6.20
2023-03-22T01:50:37.385Z,6.11
2023-03-22T01:53:06.564Z,6.09
2023-03-22T01:55:33.296Z,6.16
2023-03-22T01:58:00.996Z,6.20
2023-03-22T02:00:27.722Z,6.35
2023-03-22T02:02:54.178Z,6.32
2023-03-22T02:05:22.304Z,6.34
2023-03-22T02:07:50.225Z,6.24
2023-03-22T02:10:20.364Z,6.01
2023-03-22T02:13:12.512Z,5.82
2023-03-22T02:15:49.624Z,5.62
2023-03-22T02:18:38.528Z,5.49
2023-03-22T02:21:35.595Z,5.37
2023-03-22T02:24:26.314Z,5.27
2023-03-22T02:26:59.474Z,5.22
2023-03-22T02:29:32.914Z,5.22
2023-03-22T02:32:26.160Z,5.22
2023-03-22T02:35:34.135Z,5.35
2023-03-22T02:38:27.656Z,5.63
2023-03-22T02:41:01.729Z,5.76
2023-03-22T02:43:34.424Z,5.84
2023-03-22T02:46:09.722Z,5.87
2023-03-22T02:48:47.932Z,5.90
2023-03-22T02:51:30.272Z,6.04
2023-03-22T02:54:04.085Z,6.05
2023-03-22T02:56:55.513Z,6.00
2023-03-22T02:59:24.762Z,5.98
2023-03-22T03:02:00.269Z,6.02
2023-03-22T03:04:37.743Z,5.95
2023-03-22T03:07:09.205Z,5.90
2023-03-22T03:09:38.087Z,5.81
2023-03-22T03:12:09.788Z,5.82
2023-03-22T03:14:36.135Z,5.74
2023-03-22T03:17:39.634Z,5.84
2023-03-22T03:20:37.674Z,5.83
2023-03-22T03:23:16.399Z,5.93
2023-03-22T03:25:52.014Z,5.93
2023-03-22T03:28:30.198Z,5.89
2023-03-22T03:30:59.964Z,5.84
2023-03-22T03:33:28.459Z,5.77
2023-03-22T03:36:09.791Z,5.71
2023-03-22T03:38:42.327Z,5.66
2023-03-22T03:41:13.589Z,5.58
2023-03-22T03:43:41.971Z,5.60
2023-03-22T03:46:09.072Z,5.62
2023-03-22T03:48:38.628Z,5.63
2023-03-22T03:51:05.412Z,5.64
2023-03-22T03:53:32.285Z,5.58
2023-03-22T03:55:58.622Z,5.55
2023-03-22T03:58:25.093Z,5.58
2023-03-22T04:00:51.941Z,5.53
2023-03-22T04:03:18.446Z,5.50
2023-03-22T04:05:44.962Z,5.51
2023-03-22T04:08:11.404Z,5.46
2023-03-22T04:10:38.071Z,5.42
2023-03-22T04:13:04.653Z,5.29
2023-03-22T04:15:31.027Z,5.24
2023-03-22T04:17:57.359Z,5.20
2023-03-22T04:20:26.022Z,5.14
2023-03-22T04:22:52.707Z,5.13
2023-03-22T04:25:19.046Z,5.09
2023-03-22T04:27:50.844Z,5.00
2023-03-22T04:30:18.883Z,4.79
2023-03-22T04:32:47.280Z,4.58
2023-03-22T04:35:13.880Z,4.34
2023-03-22T04:37:41.614Z,4.18
2023-03-22T04:40:08.696Z,4.05
2023-03-22T04:42:35.441Z,3.93
2023-03-22T04:45:03.921Z,3.91
2023-03-22T04:47:30.282Z,3.90
2023-03-22T04:49:57.357Z,3.79
2023-03-22T04:52:23.677Z,3.84
2023-03-22T04:54:50.747Z,3.81
2023-03-22T04:57:17.129Z,3.93
2023-03-22T04:59:43.457Z,3.99
2023-03-22T05:02:09.812Z,3.95
2023-03-22T05:04:36.119Z,3.87
2023-03-22T05:07:02.697Z,3.78
2023-03-22T05:09:28.994Z,3.70
2023-03-22T05:11:57.808Z,3.70
2023-03-22T05:14:24.524Z,3.67
2023-03-22T05:16:51.119Z,3.89
2023-03-22T05:19:17.421Z,3.87
2023-03-22T05:21:44.017Z,3.94
2023-03-22T05:24:11.593Z,4.06
2023-03-22T05:26:42.087Z,4.12
2023-03-22T05:29:10.832Z,4.23
2023-03-22T05:31:37.622Z,4.28
2023-03-22T05:34:04.617Z,4.26
2023-03-22T05:36:30.974Z,4.33
2023-03-22T05:38:57.639Z,4.42
2023-03-22T05:41:24.191Z,4.57
2023-03-22T05:43:50.987Z,4.61
2023-03-22T05:46:17.393Z,4.71
2023-03-22T05:48:43.807Z,4.72
2023-03-22T05:51:17.583Z,4.78
2023-03-22T05:53:47.592Z,4.72
2023-03-22T05:56:14.841Z,4.73
2023-03-22T05:58:42.251Z,4.67
2023-03-22T06:01:11.548Z,4.72
2023-03-22T06:03:39.080Z,4.77
2023-03-22T06:06:10.639Z,4.91
2023-03-22T06:08:39.269Z,4.95
2023-03-22T06:11:06.582Z,4.92
2023-03-22T06:13:33.427Z,5.02
2023-03-22T06:16:02.152Z,5.12
2023-03-22T06:18:29.448Z,5.16
2023-03-22T06:20:55.779Z,5.24
2023-03-22T06:23:22.233Z,5.39
2023-03-22T06:25:48.893Z,5.47
2023-03-22T06:28:15.252Z,5.56
2023-03-22T06:30:41.893Z,5.60
2023-03-22T06:33:08.625Z,5.57
2023-03-22T06:35:35.392Z,5.71
2023-03-22T06:38:01.896Z,5.77
2023-03-22T06:40:28.340Z,5.83
2023-03-22T06:42:54.890Z,5.87
2023-03-22T06:45:22.677Z,6.07
2023-03-22T06:47:50.318Z,6.45
2023-03-22T06:50:17.143Z,6.74
2023-03-22T06:52:43.517Z,6.65
2023-03-22T06:55:09.945Z,6.51
2023-03-22T06:57:36.396Z,6.48
2023-03-22T07:00:05.320Z,6.41
2023-03-22T07:02:31.860Z,6.53
2023-03-22T07:04:58.192Z,6.73
2023-03-22T07:07:24.554Z,7.13
2023-03-22T07:09:51.065Z,7.17
2023-03-22T07:12:18.575Z,7.17
2023-03-22T07:14:45.102Z,7.27
2023-03-22T07:17:14.021Z,7.46
2023-03-22T07:19:42.580Z,7.54
2023-03-22T07:22:09.157Z,7.84
2023-03-22T07:24:40.329Z,8.09
2023-03-22T07:27:11.075Z,8.56
2023-03-22T07:29:37.728Z,8.95
2023-03-22T07:32:04.264Z,9.39
2023-03-22T07:34:31.031Z,9.85
2023-03-22T07:36:57.358Z,10.23
2023-03-22T07:39:24.793Z,10.44
2023-03-22T07:41:51.764Z,10.44
2023-03-22T07:44:18.572Z,10.47
2023-03-22T07:46:45.074Z,10.38
2023-03-22T07:49:11.428Z,10.63
2023-03-22T07:51:38.350Z,10.78
2023-03-22T07:54:07.604Z,11.05
2023-03-22T07:56:34.633Z,11.30
2023-03-22T07:59:01.004Z,11.27
2023-03-22T08:01:27.400Z,11.65
2023-03-22T08:03:53.713Z,12.18
2023-03-22T08:06:21.557Z,12.37
2023-03-22T08:08:48.160Z,12.53
2023-03-22T08:11:14.461Z,12.57
2023-03-22T08:13:40.873Z,12.41
2023-03-22T08:16:07.535Z,12.51
2023-03-22T08:18:33.933Z,12.47
2023-03-22T08:21:00.653Z,12.43
2023-03-22T08:23:40.560Z,12.29
2023-03-22T08:26:08.031Z,12.71
2023-03-22T08:28:34.374Z,12.97
2023-03-22T08:31:00.789Z,13.07
2023-03-22T08:33:28.172Z,12.98
2023-03-22T08:36:14.297Z,13.06
2023-03-22T08:38:42.315Z,12.90
2023-03-22T08:41:08.658Z,13.09
2023-03-22T08:43:35.034Z,13.08
2023-03-22T08:46:01.604Z,13.04
2023-03-22T08:48:30.522Z,13.19
2023-03-22T08:50:57.654Z,13.41
2023-03-22T08:53:24.033Z,13.58
2023-03-22T08:55:50.861Z,13.77
2023-03-22T08:58:19.530Z,13.86
2023-03-22T09:00:49.497Z,13.65
2023-03-22T09:03:17.257Z,13.45
2023-03-22T09:05:43.712Z,13.50
2023-03-22T09:08:18.177Z,13.67
2023-03-22T09:10:51.060Z,13.92
2023-03-22T09:13:17.925Z,14.19
2023-03-22T09:15:47.565Z,14.53
2023-03-22T09:18:14.619Z,15.07
2023-03-22T09:20:41.215Z,15.50
2023-03-22T09:23:07.931Z,16.04
2023-03-22T09:25:34.307Z,16.16
2023-03-22T09:28:01.195Z,16.37
2023-03-22T09:30:27.544Z,16.45
2023-03-22T09:32:54.105Z,16.40
2023-03-22T09:35:20.652Z,16.29
2023-03-22T09:37:49.182Z,16.20
2023-03-22T09:40:17.253Z,16.04
2023-03-22T09:42:51.057Z,15.87
2023-03-22T09:45:27.706Z,15.88
2023-03-22T09:47:55.783Z,16.02
2023-03-22T09:50:25.206Z,15.97
2023-03-22T09:52:52.859Z,15.90
2023-03-22T09:55:25.102Z,15.69
2023-03-22T09:58:05.318Z,15.72
2023-03-22T10:00:52.710Z,16.03
2023-03-22T10:03:55.608Z,16.31
2023-03-22T10:06:24.185Z,16.65
2023-03-22T10:09:16.562Z,16.73
2023-03-22T10:12:04.993Z,16.86
2023-03-22T10:14:41.260Z,17.05
2023-03-22T10:17:15.783Z,17.09
2023-03-22T10:20:08.509Z,17.05
2023-03-22T10:22:43.884Z,17.00
2023-03-22T10:25:17.443Z,16.76
2023-03-22T10:27:46.356Z,16.82
2023-03-22T10:30:22.177Z,16.89
2023-03-22T10:33:03.504Z,17.01
2023-03-22T10:35:31.617Z,17.05
2023-03-22T10:38:01.967Z,16.98
2023-03-22T10:40:34.033Z,17.08
2023-03-22T10:43:05.763Z,16.87
2023-03-22T10:45:34.851Z,17.21
2023-03-22T10:48:13.202Z,17.52
2023-03-22T10:50:44.450Z,17.49
2023-03-22T10:53:34.564Z,17.35
2023-03-22T10:56:00.853Z,17.58
2023-03-22T10:58:32.210Z,17.30
2023-03-22T11:01:04.389Z,17.20
2023-03-22T11:03:41.782Z,16.96
2023-03-22T11:06:17.658Z,17.08
2023-03-22T11:08:46.427Z,17.10
2023-03-22T11:11:23.794Z,17.26
2023-03-22T11:13:56.503Z,17.34
2023-03-22T11:16:23.652Z,17.04
2023-03-22T11:18:50.212Z,17.00
2023-03-22T11:21:18.358Z,17.18
2023-03-22T11:23:53.874Z,17.11
2023-03-22T11:26:27.907Z,17.26
2023-03-22T11:29:02.570Z,17.52
2023-03-22T11:31:49.610Z,17.49
2023-03-22T11:34:18.657Z,17.55
2023-03-22T11:36:51.337Z,17.90
2023-03-22T11:39:17.688Z,18.07
2023-03-22T11:41:45.216Z,18.26
2023-03-22T11:44:15.845Z,18.54
2023-03-22T11:47:08.433Z,18.48
2023-03-22T11:49:44.559Z,18.62
2023-03-22T11:52:19.902Z,18.57
2023-03-22T11:54:47.301Z,18.37
2023-03-22T11:57:19.560Z,17.98
2023-03-22T11:59:53.041Z,18.16
2023-03-22T12:02:34.386Z,17.78
2023-03-22T12:05:14.866Z,17.96
2023-03-22T12:07:41.850Z,18.04
2023-03-22T12:10:18.490Z,17.92
2023-03-22T12:12:58.892Z,18.16
2023-03-22T12:15:50.198Z,18.48
2023-03-22T12:18:29.004Z,18.67
2023-03-22T12:20:57.759Z,18.64
2023-03-22T12:23:27.491Z,18.89
2023-03-22T12:26:00.988Z,18.64
2023-03-22T12:28:39.224Z,18.60
2023-03-22T12:31:07.928Z,18.43
2023-03-22T12:33:44.786Z,18.47
2023-03-22T12:36:17.342Z,18.67
2023-03-22T12:38:51.456Z,18.77
2023-03-22T12:41:26.377Z,18.89
2023-03-22T12:44:00.417Z,18.86
2023-03-22T12:46:33.214Z,18.87
2023-03-22T12:49:13.259Z,19.21
2023-03-22T12:51:42.018Z,19.30
2023-03-22T12:54:13.576Z,19.19
2023-03-22T12:56:43.414Z,18.84
2023-03-22T12:59:18.371Z,18.85
2023-03-22T13:01:58.035Z,19.02
2023-03-22T13:04:36.248Z,19.12
2023-03-22T13:07:39.585Z,18.91
2023-03-22T13:10:41.555Z,18.81
2023-03-22T13:13:23.584Z,18.63
2023-03-22T13:16:08.335Z,18.68
2023-03-22T13:18:37.995Z,18.55
2023-03-22T13:21:34.788Z,18.36
2023-03-22T13:24:10.153Z,18.43
2023-03-22T13:26:45.982Z,18.47
2023-03-22T13:29:26.956Z,18.54
2023-03-22T13:31:58.277Z,18.59
2023-03-22T13:34:46.534Z,18.50
2023-03-22T13:37:36.720Z,18.54
2023-03-22T13:40:13.896Z,18.29
2023-03-22T13:42:41.819Z,18.38
2023-03-22T13:45:31.402Z,18.22
2023-03-22T13:48:13.325Z,18.25
2023-03-22T13:50:39.977Z,18.50
2023-03-22T13:53:21.458Z,18.67
2023-03-22T13:55:51.832Z,18.71
2023-03-22T13:58:32.966Z,18.35
2023-03-22T14:01:00.886Z,18.29
2023-03-22T14:03:40.480Z,17.97
2023-03-22T14:06:20.657Z,18.17
2023-03-22T14:08:53.447Z,18.11
2023-03-22T14:11:28.658Z,18.07
2023-03-22T14:14:04.119Z,18.01
2023-03-22T14:16:30.607Z,18.06
2023-03-22T14:18:57.864Z,17.96
2023-03-22T14:21:35.890Z,17.83
